Time;durP1;ratioP1;P1;durP2;ratioP2;P2;SDS_P1;SDS_P2;PMS_P1;PMS_P2;Temp;Humidity;BMP_temperature;BMP_pressure;BME280_temperature;BME280_humidity;BME280_pressure;Samples;Min_cycle;Max_cycle;Signal;HPM_P1;HPM_P2
2022/09/23 00:02:10;;;;;;;10.90;10.60;;;7.00;99.90;;;;;;6258802;22;20277;-82
2022/09/23 00:04:38;;;;;;;11.00;10.70;;;7.00;99.90;;;;;;6258397;22;20932;-82
2022/09/23 00:07:05;;;;;;;10.80;10.50;;;6.90;99.90;;;;;;6265594;22;20201;-82
2022/09/23 00:09:33;;;;;;;10.50;10.20;;;6.90;99.90;;;;;;6262716;22;20217;-81
2022/09/23 00:12:02;;;;;;;10.70;10.40;;;6.90;99.90;;;;;;6260922;22;20194;-81
2022/09/23 00:14:31;;;;;;;10.80;10.50;;;6.80;99.90;;;;;;6271502;22;20221;-81
2022/09/23 00:16:59;;;;;;;10.73;10.43;;;6.80;99.90;;;;;;6270034;22;20206;-82
2022/09/23 00:19:28;;;;;;;10.67;10.37;;;6.80;99.90;;;;;;6270570;22;20202;-82
2022/09/23 00:21:56;;;;;;;10.70;10.40;;;6.80;99.90;;;;;;6266813;22;20269;-81
2022/09/23 00:24:23;;;;;;;10.90;10.60;;;6.70;99.90;;;;;;6260576;22;20206;-82
2022/09/23 00:26:51;;;;;;;10.80;10.50;;;6.70;99.90;;;;;;6260990;22;20218;-82
2022/09/23 00:29:20;;;;;;;10.70;10.40;;;6.70;99.90;;;;;;6260849;22;20217;-82
2022/09/23 00:31:48;;;;;;;10.60;10.30;;;6.70;99.90;;;;;;6259884;22;20195;-82
2022/09/23 00:34:16;;;;;;;10.50;10.20;;;6.70;99.90;;;;;;6259012;22;20194;-82
2022/09/23 00:36:45;;;;;;;10.67;10.37;;;6.70;99.90;;;;;;6258750;22;20217;-82
2022/09/23 00:39:21;;;;;;;10.70;10.40;;;6.70;99.90;;;;;;6259310;22;20261;-81
2022/09/23 00:41:48;;;;;;;10.53;10.23;;;6.70;99.90;;;;;;6259414;22;20221;-81
2022/09/23 00:44:45;;;;;;;10.47;10.17;;;6.70;99.90;;;;;;6258475;22;20214;-80
2022/09/23 00:47:19;;;;;;;10.60;10.30;;;6.60;99.90;;;;;;6258750;22;20254;-82
2022/09/23 00:49:51;;;;;;;10.80;10.50;;;6.60;99.90;;;;;;6259170;22;20194;-82
2022/09/23 00:52:20;;;;;;;10.73;10.43;;;6.60;99.90;;;;;;6259565;22;20186;-82
2022/09/23 00:54:48;;;;;;;10.80;10.50;;;6.60;99.90;;;;;;6262005;22;20301;-82
2022/09/23 00:57:19;;;;;;;10.63;10.33;;;6.50;99.90;;;;;;6269276;22;20225;-80
2022/09/23 00:59:49;;;;;;;10.90;10.60;;;6.50;99.90;;;;;;6280939;22;20209;-81
2022/09/23 01:02:19;;;;;;;10.60;10.30;;;6.50;99.90;;;;;;6280847;22;20197;-80
2022/09/23 01:04:49;;;;;;;10.50;10.20;;;6.50;99.90;;;;;;6280507;22;20186;-79
2022/09/23 01:07:17;;;;;;;10.67;10.37;;;6.50;99.90;;;;;;6281194;22;20210;-79
2022/09/23 01:09:48;;;;;;;10.40;10.10;;;6.50;99.90;;;;;;6279927;22;20201;-79
2022/09/23 01:12:33;;;;;;;10.43;10.13;;;6.50;99.90;;;;;;6281577;22;20174;-80
2022/09/23 01:15:15;;;;;;;10.60;10.30;;;6.50;99.90;;;;;;6279882;22;20174;-80
2022/09/23 01:17:54;;;;;;;10.80;10.50;;;6.50;99.90;;;;;;6279914;22;20197;-81
2022/09/23 01:20:46;;;;;;;10.40;10.10;;;6.50;99.90;;;;;;6279544;22;20206;-81
2022/09/23 01:23:41;;;;;;;10.53;10.23;;;6.50;99.90;;;;;;6279877;22;20190;-81
2022/09/23 01:26:38;;;;;;;11.00;10.70;;;6.50;99.90;;;;;;6278415;22;20205;-81
2022/09/23 01:29:44;;;;;;;11.20;10.80;;;6.40;99.90;;;;;;6277114;22;20198;-81
2022/09/23 01:32:24;;;;;;;10.60;10.30;;;6.40;99.90;;;;;;6200569;22;20202;-82
2022/09/23 01:35:00;;;;;;;10.83;10.53;;;6.30;99.90;;;;;;6262991;22;20228;-82
2022/09/23 01:37:36;;;;;;;10.90;10.60;;;6.30;99.90;;;;;;6264620;22;20212;-81
2022/09/23 01:40:10;;;;;;;10.90;10.60;;;6.20;99.90;;;;;;6267915;22;20196;-82
2022/09/23 01:42:44;;;;;;;11.00;10.70;;;6.20;99.90;;;;;;6262044;22;20192;-82
2022/09/23 01:45:18;;;;;;;10.90;10.60;;;6.20;99.90;;;;;;6261198;22;20216;-82
2022/09/23 01:47:55;;;;;;;10.90;10.60;;;6.20;99.90;;;;;;6260497;22;20300;-82
2022/09/23 01:53:19;;;;;;;10.93;10.63;;;6.10;99.90;;;;;;6260935;22;20178;-82
2022/09/23 01:55:51;;;;;;;10.90;10.60;;;6.10;99.90;;;;;;6259874;22;20244;-82
2022/09/23 01:58:27;;;;;;;11.00;10.70;;;6.10;99.90;;;;;;6259378;22;20253;-82
2022/09/23 02:00:59;;;;;;;11.10;10.80;;;6.10;99.90;;;;;;6259025;22;20204;-82
2022/09/23 02:03:33;;;;;;;11.00;10.70;;;6.00;99.90;;;;;;6259534;22;20193;-81
2022/09/23 02:06:05;;;;;;;11.17;10.77;;;6.00;99.90;;;;;;6258524;22;20210;-82
2022/09/23 02:08:40;;;;;;;11.07;10.70;;;6.00;99.90;;;;;;6258798;22;20623;-82
2022/09/23 02:11:10;;;;;;;11.00;10.67;;;5.90;99.90;;;;;;6259203;22;20201;-82
2022/09/23 02:13:45;;;;;;;10.90;10.60;;;5.90;99.90;;;;;;6259242;22;20245;-82
2022/09/23 02:16:24;;;;;;;11.07;10.70;;;5.90;99.90;;;;;;6258288;22;20212;-81
2022/09/23 02:18:58;;;;;;;11.30;10.90;;;5.90;99.90;;;;;;6258710;22;20194;-81
2022/09/23 02:21:32;;;;;;;11.10;10.70;;;5.90;99.90;;;;;;6258370;22;20226;-82
2022/09/23 02:24:10;;;;;;;10.90;10.60;;;5.90;99.90;;;;;;6259187;22;20718;-82
2022/09/23 02:26:47;;;;;;;10.90;10.60;;;5.90;99.90;;;;;;6257767;22;20210;-82
2022/09/23 02:29:22;;;;;;;10.90;10.60;;;5.90;99.90;;;;;;6258824;22;20265;-82
2022/09/23 02:32:00;;;;;;;10.67;10.37;;;5.90;99.90;;;;;;6258674;22;20248;-81
2022/09/23 02:34:42;;;;;;;10.80;10.50;;;5.80;99.90;;;;;;6257788;22;20245;-82
2022/09/23 02:37:24;;;;;;;11.13;10.73;;;5.80;99.90;;;;;;6258741;22;20218;-82
2022/09/23 02:40:02;;;;;;;11.13;10.73;;;5.80;99.90;;;;;;6259135;22;20190;-82
2022/09/23 02:42:39;;;;;;;10.80;10.50;;;5.80;99.90;;;;;;6259128;22;20213;-82
2022/09/23 02:45:08;;;;;;;10.80;10.50;;;5.80;99.90;;;;;;6274384;22;20170;-80
2022/09/23 02:47:40;;;;;;;10.97;10.67;;;5.70;99.90;;;;;;6259841;22;20214;-81
2022/09/23 02:50:11;;;;;;;10.97;10.67;;;5.70;99.90;;;;;;6259967;22;20190;-81
2022/09/23 02:52:38;;;;;;;11.33;10.93;;;5.70;99.90;;;;;;6267889;22;20242;-81
2022/09/23 02:55:09;;;;;;;11.03;10.67;;;5.70;99.90;;;;;;6259717;22;20194;-81
2022/09/23 02:57:37;;;;;;;11.20;10.80;;;5.70;99.90;;;;;;6260380;22;20202;-81
2022/09/23 03:00:07;;;;;;;10.90;10.60;;;5.70;99.90;;;;;;6259097;22;20194;-82
2022/09/23 03:03:13;;;;;;;11.10;10.80;;;5.70;99.90;;;;;;6259851;22;20276;-81
2022/09/23 03:05:54;;;;;;;10.93;10.63;;;5.70;99.90;;;;;;6258369;22;20313;-81
2022/09/23 03:08:38;;;;;;;10.90;10.60;;;5.60;99.90;;;;;;6259532;22;20237;-81
2022/09/23 03:11:12;;;;;;;11.00;10.70;;;5.60;99.90;;;;;;6261188;22;20205;-81
2022/09/23 03:13:54;;;;;;;10.90;10.60;;;5.50;99.90;;;;;;6260966;22;20277;-81
2022/09/23 03:16:31;;;;;;;10.80;10.50;;;5.50;99.90;;;;;;6268062;22;20206;-81
2022/09/23 03:19:11;;;;;;;10.70;10.40;;;5.50;99.90;;;;;;6269036;22;20190;-81
2022/09/23 03:21:48;;;;;;;11.07;10.77;;;5.50;99.90;;;;;;6263440;22;20190;-81
2022/09/23 03:24:17;;;;;;;10.43;10.13;;;5.50;99.90;;;;;;6262158;22;20190;-81
2022/09/23 03:26:48;;;;;;;10.80;10.50;;;5.50;99.90;;;;;;6261422;22;20198;-81
2022/09/23 03:29:18;;;;;;;10.80;10.50;;;5.40;99.90;;;;;;6262128;22;20283;-82
2022/09/23 03:31:46;;;;;;;10.70;10.40;;;5.40;99.90;;;;;;6261342;22;20194;-81
2022/09/23 03:34:19;;;;;;;10.80;10.50;;;5.40;99.90;;;;;;6271921;22;20540;-79
2022/09/23 03:36:59;;;;;;;11.00;10.70;;;5.40;99.90;;;;;;6262322;22;20225;-81
2022/09/23 03:39:39;;;;;;;10.80;10.50;;;5.40;99.90;;;;;;6268264;22;20241;-79
2022/09/23 03:42:15;;;;;;;10.80;10.50;;;5.30;99.90;;;;;;6281646;22;20262;-79
2022/09/23 03:44:44;;;;;;;10.70;10.40;;;5.30;99.90;;;;;;6281311;22;20162;-80
2022/09/23 03:47:13;;;;;;;10.67;10.37;;;5.20;99.90;;;;;;6280675;22;20194;-81
2022/09/23 03:49:44;;;;;;;10.60;10.30;;;5.20;99.90;;;;;;6262396;22;20229;-81
2022/09/23 03:52:13;;;;;;;10.50;10.20;;;5.10;99.90;;;;;;6259883;22;20194;-81
2022/09/23 03:54:40;;;;;;;10.63;10.33;;;5.10;99.90;;;;;;6258158;22;20206;-82
2022/09/23 03:57:08;;;;;;;10.60;10.30;;;5.10;99.90;;;;;;6259093;22;20254;-81
2022/09/23 03:59:36;;;;;;;10.50;10.20;;;5.10;99.90;;;;;;6259231;22;20237;-82
2022/09/23 04:02:06;;;;;;;10.60;10.30;;;5.10;99.90;;;;;;6259057;22;20249;-82
2022/09/23 04:04:36;;;;;;;10.40;10.10;;;5.10;99.90;;;;;;6258416;22;20225;-82
2022/09/23 04:07:05;;;;;;;10.60;10.30;;;5.10;99.90;;;;;;6258879;22;20237;-81
2022/09/23 04:09:36;;;;;;;10.60;10.30;;;5.00;99.90;;;;;;6259158;22;20289;-82
2022/09/23 04:12:05;;;;;;;10.50;10.20;;;5.10;99.90;;;;;;6259243;22;20195;-81
2022/09/23 04:14:33;;;;;;;10.40;10.10;;;5.00;99.90;;;;;;6258810;22;20218;-82
2022/09/23 04:17:00;;;;;;;10.43;10.13;;;5.00;99.90;;;;;;6259065;22;20237;-81
2022/09/23 04:19:28;;;;;;;10.80;10.50;;;5.00;99.90;;;;;;6260296;22;20198;-82
2022/09/23 04:21:55;;;;;;;10.47;10.17;;;5.00;99.90;;;;;;6259262;22;20214;-82
2022/09/23 04:24:23;;;;;;;10.30;10.00;;;4.90;99.90;;;;;;6258652;22;20218;-81
2022/09/23 04:26:54;;;;;;;10.43;10.13;;;4.90;99.90;;;;;;6259148;22;20270;-82
2022/09/23 04:29:22;;;;;;;10.50;10.20;;;4.90;99.90;;;;;;6259446;22;20186;-82
2022/09/23 04:31:50;;;;;;;10.40;10.10;;;4.90;99.90;;;;;;6259473;22;20256;-83
2022/09/23 04:34:19;;;;;;;10.00;9.70;;;4.90;99.90;;;;;;6258901;22;20214;-80
2022/09/23 04:36:49;;;;;;;10.20;9.90;;;4.90;99.90;;;;;;6259677;22;20205;-82
2022/09/23 04:39:18;;;;;;;10.40;10.10;;;4.90;99.90;;;;;;6259688;22;20207;-82
2022/09/23 04:41:46;;;;;;;10.30;10.00;;;4.80;99.90;;;;;;6260667;22;20210;-82
2022/09/23 04:44:16;;;;;;;10.70;10.40;;;4.90;99.90;;;;;;6259307;22;20210;-82
2022/09/23 04:46:46;;;;;;;10.90;10.60;;;4.80;99.90;;;;;;6258632;22;20269;-82
2022/09/23 04:49:18;;;;;;;10.90;10.60;;;4.90;99.90;;;;;;6259498;22;20186;-82
2022/09/23 04:51:48;;;;;;;10.73;10.43;;;4.90;99.90;;;;;;6260214;22;20194;-82
2022/09/23 04:54:17;;;;;;;10.97;10.67;;;4.90;99.90;;;;;;6258738;22;20198;-82
2022/09/23 04:56:47;;;;;;;11.00;10.70;;;4.80;99.90;;;;;;6259125;22;20202;-82
2022/09/23 04:59:21;;;;;;;10.73;10.43;;;4.80;99.90;;;;;;6259296;22;20198;-82
2022/09/23 05:01:50;;;;;;;11.20;10.80;;;4.80;99.90;;;;;;6259018;22;20190;-82
2022/09/23 05:04:18;;;;;;;10.80;10.50;;;4.80;99.90;;;;;;6258973;22;20201;-82
2022/09/23 05:06:45;;;;;;;10.47;10.17;;;4.70;99.90;;;;;;6258495;22;20262;-82
2022/09/23 05:09:17;;;;;;;10.37;10.07;;;4.70;99.90;;;;;;6259578;22;20278;-82
2022/09/23 05:11:45;;;;;;;10.80;10.50;;;4.70;99.90;;;;;;6258968;22;20193;-82
2022/09/23 05:14:14;;;;;;;10.87;10.57;;;4.70;99.90;;;;;;6259136;22;20182;-82
2022/09/23 05:16:50;;;;;;;10.97;10.67;;;4.60;99.90;;;;;;6258432;22;20209;-81
2022/09/23 05:19:18;;;;;;;10.93;10.63;;;4.60;99.90;;;;;;6258537;22;20280;-81
2022/09/23 05:21:46;;;;;;;10.83;10.53;;;4.60;99.90;;;;;;6259004;22;20202;-82
2022/09/23 05:24:15;;;;;;;10.43;10.13;;;4.60;99.90;;;;;;6260126;22;20194;-83
2022/09/23 05:26:43;;;;;;;11.00;10.70;;;4.50;99.90;;;;;;6260985;22;20209;-82
2022/09/23 05:29:11;;;;;;;11.00;10.70;;;4.50;99.90;;;;;;6265524;22;20197;-82
2022/09/23 05:31:40;;;;;;;11.00;10.70;;;4.50;99.90;;;;;;6260168;22;20205;-83
2022/09/23 05:34:10;;;;;;;11.00;10.70;;;4.50;99.90;;;;;;6260954;22;20281;-81
2022/09/23 05:36:41;;;;;;;11.00;10.70;;;4.50;99.90;;;;;;6259920;22;20225;-82
2022/09/23 05:39:09;;;;;;;11.00;10.70;;;4.50;99.90;;;;;;6260682;22;20213;-81
2022/09/23 05:41:38;;;;;;;11.10;10.80;;;4.50;99.90;;;;;;6261048;22;20233;-81
2022/09/23 05:44:06;;;;;;;11.13;10.77;;;4.60;99.90;;;;;;6261063;22;20281;-81
2022/09/23 05:46:38;;;;;;;11.25;10.85;;;4.60;99.90;;;;;;6259830;22;20381;-81
2022/09/23 05:49:06;;;;;;;11.30;10.90;;;4.70;99.90;;;;;;6261558;22;20191;-82
2022/09/23 05:51:38;;;;;;;11.00;10.70;;;4.80;99.90;;;;;;6260392;22;20253;-81
2022/09/23 05:54:05;;;;;;;10.83;10.53;;;4.90;99.90;;;;;;6261577;22;20194;-81
2022/09/23 05:56:37;;;;;;;10.93;10.63;;;5.00;99.90;;;;;;6258966;22;20206;-83
2022/09/23 05:59:06;;;;;;;11.03;10.70;;;5.10;99.90;;;;;;6260543;22;20213;-82
2022/09/23 06:01:37;;;;;;;11.17;10.77;;;5.10;99.90;;;;;;6258248;22;20202;-85
2022/09/23 06:04:11;;;;;;;10.90;10.60;;;5.20;99.90;;;;;;6258528;22;20189;-85
2022/09/23 06:06:42;;;;;;;10.83;10.53;;;5.30;99.90;;;;;;6258054;22;20233;-82
2022/09/23 06:09:16;;;;;;;10.70;10.40;;;5.30;99.90;;;;;;6258684;22;20182;-85
2022/09/23 06:11:44;;;;;;;10.63;10.33;;;5.40;99.90;;;;;;6264022;22;20273;-79
2022/09/23 06:14:15;;;;;;;10.43;10.13;;;5.50;99.90;;;;;;6263993;22;20202;-83
2022/09/23 06:16:43;;;;;;;10.90;10.60;;;5.60;99.90;;;;;;6259807;22;20198;-82
2022/09/23 06:19:11;;;;;;;10.90;10.60;;;5.60;99.90;;;;;;6259244;22;20206;-79
2022/09/23 06:21:40;;;;;;;10.63;10.33;;;5.80;99.90;;;;;;6258562;22;20206;-80
2022/09/23 06:24:09;;;;;;;10.53;10.23;;;5.80;99.90;;;;;;6259586;22;20221;-81
2022/09/23 06:26:37;;;;;;;10.40;10.10;;;5.90;99.90;;;;;;6274159;22;20178;-78
2022/09/23 06:29:10;;;;;;;10.37;10.07;;;6.00;99.90;;;;;;6280177;22;20201;-80
2022/09/23 06:31:39;;;;;;;10.50;10.20;;;6.10;99.90;;;;;;6280205;22;20260;-79
2022/09/23 06:34:07;;;;;;;10.07;9.77;;;6.10;99.90;;;;;;6277651;22;20182;-79
2022/09/23 06:36:34;;;;;;;10.47;10.17;;;6.30;99.90;;;;;;6262129;22;20285;-81
2022/09/23 06:39:04;;;;;;;10.50;10.20;;;6.30;99.90;;;;;;6259122;22;20289;-81
2022/09/23 06:41:32;;;;;;;10.20;9.90;;;6.40;99.90;;;;;;6262502;22;20215;-80
2022/09/23 06:44:00;;;;;;;10.20;9.90;;;6.50;99.90;;;;;;6267129;22;20321;-81
2022/09/23 06:46:28;;;;;;;10.30;10.00;;;6.60;99.90;;;;;;6258794;22;20236;-82
2022/09/23 06:48:55;;;;;;;10.30;10.00;;;6.70;99.90;;;;;;6258565;22;20229;-80
2022/09/23 06:51:23;;;;;;;10.20;9.90;;;6.80;99.90;;;;;;6258290;22;20225;-81
2022/09/23 06:53:51;;;;;;;10.43;10.13;;;6.90;99.90;;;;;;6258563;22;20178;-81
2022/09/23 06:56:21;;;;;;;10.30;10.00;;;7.00;99.90;;;;;;6257803;22;20202;-81
2022/09/23 06:58:51;;;;;;;10.43;10.13;;;7.20;99.90;;;;;;6258484;22;20213;-82
2022/09/23 07:01:19;;;;;;;10.17;9.87;;;7.30;99.90;;;;;;6258504;22;20284;-81
2022/09/23 07:03:48;;;;;;;10.43;10.13;;;7.40;99.90;;;;;;6258586;22;20202;-83
2022/09/23 07:06:16;;;;;;;10.23;9.93;;;7.50;99.90;;;;;;6257785;22;20190;-81
2022/09/23 07:08:45;;;;;;;10.37;10.07;;;7.70;99.90;;;;;;6258219;22;20221;-81
2022/09/23 07:11:14;;;;;;;10.13;9.83;;;7.80;99.90;;;;;;6258573;22;20205;-81
2022/09/23 07:13:43;;;;;;;10.63;10.33;;;7.90;99.90;;;;;;6258489;22;20248;-81
2022/09/23 07:16:12;;;;;;;10.57;10.27;;;8.00;99.90;;;;;;6257730;22;20234;-81
2022/09/23 07:18:41;;;;;;;10.30;10.00;;;8.20;99.90;;;;;;6257544;22;20210;-79
2022/09/23 07:21:19;;;;;;;10.30;10.00;;;8.30;99.90;;;;;;6261071;22;20221;-81
2022/09/23 07:23:48;;;;;;;10.60;10.30;;;8.50;99.90;;;;;;6265315;22;20190;-81
2022/09/23 07:26:18;;;;;;;10.47;10.17;;;8.60;99.90;;;;;;6258448;22;20228;-81
2022/09/23 07:28:48;;;;;;;10.30;10.00;;;8.80;99.90;;;;;;6259661;22;20202;-81
2022/09/23 07:31:18;;;;;;;10.40;10.10;;;8.90;99.90;;;;;;6260160;22;20258;-82
2022/09/23 07:33:46;;;;;;;10.50;10.20;;;9.00;99.90;;;;;;6259317;22;20246;-80
2022/09/23 07:36:17;;;;;;;10.50;10.20;;;9.10;99.90;;;;;;6257794;22;20204;-80
2022/09/23 07:38:45;;;;;;;10.30;10.00;;;9.30;99.90;;;;;;6260142;22;20194;-80
2022/09/23 07:41:14;;;;;;;10.10;9.80;;;9.50;99.90;;;;;;6258648;22;20273;-80
2022/09/23 07:43:42;;;;;;;10.37;10.07;;;9.60;99.90;;;;;;6259472;22;20194;-81
2022/09/23 07:46:23;;;;;;;10.60;10.30;;;9.70;99.90;;;;;;6258385;22;20208;-81
2022/09/23 07:48:51;;;;;;;10.10;9.80;;;9.90;99.90;;;;;;6265831;22;20201;-81
2022/09/23 07:51:24;;;;;;;10.33;10.03;;;10.00;99.90;;;;;;6278781;22;20191;-81
2022/09/23 07:53:54;;;;;;;9.77;9.47;;;10.10;99.90;;;;;;6279793;22;20174;-80
2022/09/23 07:56:27;;;;;;;9.90;9.60;;;10.20;99.90;;;;;;6279650;22;20198;-81
2022/09/23 07:59:00;;;;;;;9.90;9.60;;;10.30;99.90;;;;;;6280303;22;20170;-81
2022/09/23 08:01:34;;;;;;;10.07;9.77;;;10.40;99.90;;;;;;6276433;22;20285;-82
2022/09/23 08:04:05;;;;;;;10.23;9.93;;;10.50;99.90;;;;;;6280555;22;20205;-81
2022/09/23 08:06:33;;;;;;;10.20;9.90;;;10.60;99.90;;;;;;6280635;22;20201;-80
2022/09/23 08:09:02;;;;;;;10.53;10.23;;;10.70;99.90;;;;;;6280595;22;20175;-79
2022/09/23 08:11:31;;;;;;;10.67;10.37;;;10.80;99.90;;;;;;6280696;22;20205;-81
2022/09/23 08:14:03;;;;;;;10.40;10.10;;;10.90;99.90;;;;;;6280376;22;20202;-82
2022/09/23 08:16:33;;;;;;;10.40;10.10;;;11.10;99.90;;;;;;6279927;22;20190;-81
2022/09/23 08:19:01;;;;;;;10.50;10.20;;;11.20;99.90;;;;;;6280438;22;20178;-82
2022/09/23 08:21:30;;;;;;;10.60;10.30;;;11.40;99.90;;;;;;6275006;22;20200;-83
2022/09/23 08:24:00;;;;;;;10.70;10.40;;;11.60;99.90;;;;;;6269304;22;20195;-84
2022/09/23 08:26:30;;;;;;;10.57;10.27;;;11.70;99.90;;;;;;6267523;22;20214;-82
2022/09/23 08:28:58;;;;;;;10.40;10.10;;;11.80;99.90;;;;;;6267703;22;20278;-82
2022/09/23 08:31:26;;;;;;;10.40;10.10;;;11.80;99.90;;;;;;6266999;22;20213;-81
2022/09/23 08:34:00;;;;;;;9.80;9.50;;;11.80;99.90;;;;;;6266062;22;20206;-82
2022/09/23 08:36:27;;;;;;;9.90;9.60;;;11.90;99.90;;;;;;6272890;22;20205;-83
2022/09/23 08:38:57;;;;;;;9.97;9.67;;;12.10;99.90;;;;;;6269456;22;20218;-82
2022/09/23 08:41:36;;;;;;;9.83;9.53;;;12.30;99.90;;;;;;6266684;22;20206;-82
2022/09/23 08:44:13;;;;;;;10.00;9.70;;;12.50;99.90;;;;;;6267372;22;20205;-83
2022/09/23 08:46:52;;;;;;;10.00;9.70;;;12.70;99.90;;;;;;6264812;22;20270;-84
2022/09/23 08:49:29;;;;;;;10.50;10.20;;;12.90;99.90;;;;;;6267645;22;20742;-84
2022/09/23 08:51:59;;;;;;;10.70;10.40;;;13.10;99.90;;;;;;6267538;22;20190;-83
2022/09/23 08:54:31;;;;;;;10.40;10.10;;;13.30;99.90;;;;;;6263640;22;20191;-80
2022/09/23 08:57:08;;;;;;;10.70;10.40;;;13.50;99.90;;;;;;6261064;22;20229;-81
2022/09/23 08:59:42;;;;;;;10.53;10.23;;;13.60;99.90;;;;;;6261497;22;20190;-83
2022/09/23 09:02:18;;;;;;;10.17;9.87;;;13.70;99.90;;;;;;6262164;22;20189;-81
2022/09/23 09:04:52;;;;;;;10.30;10.00;;;13.90;99.90;;;;;;6261634;22;20265;-84
2022/09/23 09:07:28;;;;;;;10.23;9.93;;;14.20;99.90;;;;;;6261160;22;20222;-83
2022/09/23 09:10:13;;;;;;;10.30;10.00;;;14.30;99.90;;;;;;6266194;22;20190;-84
2022/09/23 09:12:47;;;;;;;10.40;10.10;;;14.50;99.90;;;;;;6267552;22;20249;-84
2022/09/23 09:15:18;;;;;;;10.30;10.00;;;14.60;99.90;;;;;;6263816;22;20222;-82
2022/09/23 09:18:02;;;;;;;10.60;10.30;;;14.80;99.90;;;;;;6262788;22;20226;-84
2022/09/23 09:20:42;;;;;;;10.60;10.30;;;14.70;99.90;;;;;;6273775;22;20201;-80
2022/09/23 09:23:21;;;;;;;10.80;10.50;;;14.60;99.90;;;;;;6268121;22;20230;-80
2022/09/23 09:25:51;;;;;;;10.80;10.50;;;14.70;99.90;;;;;;6266595;22;20293;-80
2022/09/23 09:28:25;;;;;;;10.60;10.30;;;15.10;99.90;;;;;;6265300;22;20190;-80
2022/09/23 09:30:57;;;;;;;10.50;10.20;;;15.30;99.90;;;;;;6267956;22;20190;-81
2022/09/23 09:33:32;;;;;;;10.60;10.30;;;15.50;99.90;;;;;;6265682;22;20269;-82
2022/09/23 09:36:20;;;;;;;10.38;10.07;;;15.70;99.90;;;;;;6264716;22;20214;-81
2022/09/23 09:38:49;;;;;;;10.50;10.20;;;15.90;99.90;;;;;;6264743;22;20222;-82
2022/09/23 09:41:20;;;;;;;10.73;10.43;;;15.90;99.90;;;;;;6264164;22;20260;-80
2022/09/23 09:43:59;;;;;;;10.30;10.00;;;16.00;99.90;;;;;;6265373;22;20208;-80
2022/09/23 09:46:51;;;;;;;10.75;10.45;;;16.10;99.90;;;;;;6263987;22;20201;-80
2022/09/23 09:49:29;;;;;;;10.45;10.15;;;16.40;99.90;;;;;;6264203;22;20190;-81
2022/09/23 09:52:26;;;;;;;10.70;10.40;;;16.60;99.90;;;;;;6263466;22;20222;-80
2022/09/23 09:54:59;;;;;;;10.60;10.30;;;16.80;99.90;;;;;;6258708;22;20269;-81
2022/09/23 09:57:38;;;;;;;10.60;10.30;;;16.80;99.90;;;;;;6265720;22;20253;-81
2022/09/23 10:00:37;;;;;;;10.50;10.20;;;17.00;99.90;;;;;;6264394;22;20246;-82
2022/09/23 10:03:24;;;;;;;10.60;10.30;;;17.10;99.90;;;;;;6262843;22;20254;-80
2022/09/23 10:05:56;;;;;;;10.57;10.27;;;17.10;99.90;;;;;;6263442;22;20216;-80
2022/09/23 10:08:33;;;;;;;10.40;10.10;;;17.30;99.90;;;;;;6263325;22;20229;-80
2022/09/23 10:11:04;;;;;;;10.63;10.32;;;17.20;99.90;;;;;;6263923;22;20212;-81
2022/09/23 10:13:32;;;;;;;10.73;10.43;;;17.40;99.90;;;;;;6263232;22;20186;-81
2022/09/23 10:16:02;;;;;;;10.70;10.40;;;17.70;99.90;;;;;;6261844;22;20233;-80
2022/09/23 10:18:32;;;;;;;10.88;10.57;;;17.90;99.90;;;;;;6262354;22;20290;-80
2022/09/23 10:21:09;;;;;;;10.68;10.38;;;18.00;99.90;;;;;;6261862;22;20202;-80
2022/09/23 10:23:44;;;;;;;10.60;10.30;;;18.10;99.90;;;;;;6260077;22;20194;-78
2022/09/23 10:26:16;;;;;;;10.38;10.07;;;18.20;99.90;;;;;;6262992;22;20197;-78
2022/09/23 10:28:49;;;;;;;10.48;10.18;;;18.10;99.90;;;;;;6262413;22;20293;-79
2022/09/23 10:31:24;;;;;;;10.60;10.30;;;18.20;99.90;;;;;;6265420;22;20217;-79
2022/09/23 10:33:56;;;;;;;10.30;10.00;;;18.10;99.90;;;;;;6272381;22;20217;-78
2022/09/23 10:36:23;;;;;;;10.45;10.15;;;18.10;99.90;;;;;;6272073;22;20206;-79
2022/09/23 10:46:37;;;;;;;10.63;10.32;;;18.10;99.90;;;;;;6274993;22;20186;-79
2022/09/23 10:47:57;;;;;;;10.70;10.40;;;18.50;99.90;;;;;;6256501;22;20210;-80
2022/09/23 10:50:44;;;;;;;10.60;10.30;;;18.50;99.90;;;;;;6261626;22;20208;-81
2022/09/23 10:53:21;;;;;;;10.57;10.27;;;18.60;99.90;;;;;;6260435;22;20190;-81
2022/09/23 10:56:24;;;;;;;10.60;10.30;;;18.70;99.90;;;;;;6260364;22;20198;-82
2022/09/23 10:59:32;;;;;;;10.45;10.15;;;18.80;99.90;;;;;;6229231;22;20190;-82
2022/09/23 11:02:17;;;;;;;10.95;10.65;;;18.90;99.90;;;;;;6228486;22;20198;-81
2022/09/23 11:05:22;;;;;;;11.60;11.20;;;19.10;99.90;;;;;;6228118;23;20229;-83
2022/09/23 11:08:09;;;;;;;11.18;10.88;;;19.40;99.90;;;;;;6224523;22;20234;-84
2022/09/23 11:11:07;;;;;;;11.10;10.80;;;19.50;99.90;;;;;;6228933;22;20195;-81
2022/09/23 11:14:18;;;;;;;11.00;10.70;;;19.40;99.90;;;;;;6228712;22;20187;-83
2022/09/23 11:17:14;;;;;;;11.27;10.98;;;19.30;99.90;;;;;;6220655;22;20203;-83
2022/09/23 11:20:36;;;;;;;11.20;10.90;;;19.20;99.90;;;;;;6228710;22;20198;-81
2022/09/23 11:23:58;;;;;;;11.00;10.70;;;19.10;99.90;;;;;;6225895;23;20214;-82
2022/09/23 11:26:39;;;;;;;10.80;10.50;;;19.10;99.90;;;;;;6198848;22;20235;-83
2022/09/23 11:29:43;;;;;;;10.98;10.68;;;19.00;99.90;;;;;;6228960;23;20716;-81
2022/09/23 11:32:39;;;;;;;11.10;10.80;;;18.70;99.90;;;;;;6227536;23;20195;-82
2022/09/23 11:38:30;;;;;;;11.00;10.70;;;18.70;99.90;;;;;;6234088;22;20313;-82
2022/09/23 11:41:09;;;;;;;11.00;10.70;;;18.90;99.90;;;;;;6227148;23;20199;-83
2022/09/23 11:43:50;;;;;;;10.90;10.60;;;19.10;99.90;;;;;;6239459;22;20217;-82
2022/09/23 11:46:43;;;;;;;10.65;10.35;;;19.20;99.90;;;;;;6241515;22;20210;-83
2022/09/23 11:49:39;;;;;;;10.65;10.35;;;19.30;99.90;;;;;;6267128;22;20201;-83
2022/09/23 11:55:11;;;;;;;10.75;10.45;;;19.70;99.90;;;;;;6260746;22;20200;-82
2022/09/23 11:57:50;;;;;;;10.80;10.50;;;19.80;99.90;;;;;;6258843;22;20301;-78
2022/09/23 12:00:21;;;;;;;10.80;10.50;;;20.00;99.90;;;;;;6259518;22;20194;-82
2022/09/23 12:03:05;;;;;;;11.05;10.75;;;20.40;99.90;;;;;;6261398;22;20245;-80
2022/09/23 12:08:31;;;;;;;11.00;10.70;;;20.90;99.90;;;;;;6259540;22;20229;-84
2022/09/23 12:11:10;;;;;;;11.20;10.90;;;21.20;99.90;;;;;;6261996;22;20194;-84
2022/09/23 12:13:46;;;;;;;11.20;10.90;;;21.50;99.90;;;;;;6261114;22;20194;-84
2022/09/23 12:17:02;;;;;;;11.10;10.80;;;21.60;99.90;;;;;;6260105;22;20265;-84
2022/09/23 12:19:56;;;;;;;10.90;10.60;;;21.90;99.90;;;;;;6261113;22;20225;-85
2022/09/23 12:22:45;;;;;;;10.77;10.48;;;22.20;99.90;;;;;;6261843;22;20280;-83
2022/09/23 12:28:28;;;;;;;10.73;10.43;;;21.90;99.90;;;;;;6261663;22;20221;-85
2022/09/23 12:31:05;;;;;;;10.90;10.60;;;21.90;99.90;;;;;;6261274;22;20213;-85
2022/09/23 12:33:34;;;;;;;11.20;10.90;;;22.20;99.90;;;;;;6260365;22;20246;-83
2022/09/23 12:36:56;;;;;;;11.32;11.02;;;22.30;99.90;;;;;;6259717;22;20198;-87
2022/09/23 12:39:36;;;;;;;11.00;10.70;;;22.20;99.90;;;;;;6262517;22;20213;-82
2022/09/23 12:42:42;;;;;;;11.35;11.05;;;22.10;99.90;;;;;;6276974;22;20182;-83
2022/09/23 12:48:50;;;;;;;11.27;10.98;;;22.10;99.90;;;;;;6177262;22;20205;-86
2022/09/23 12:51:28;;;;;;;11.02;10.73;;;22.20;99.90;;;;;;6256889;22;20220;-86
2022/09/23 12:58:13;;;;;;;11.40;11.10;;;22.70;99.90;;;;;;6216041;22;20202;-89
2022/09/23 13:01:54;;;;;;;11.40;11.10;;;22.00;99.90;;;;;;6229513;22;20302;-88
2022/09/23 13:11:32;;;;;;;10.50;10.20;;;22.40;99.90;;;;;;6138542;23;20201;-84
2022/09/23 14:01:24;;;;;;;10.77;10.48;;;25.80;99.90;;;;;;6006663;23;20242;-88
2022/09/23 14:15:34;;;;;;;10.50;10.20;;;26.00;99.90;;;;;;5988587;23;20287;-87
2022/09/23 14:33:12;;;;;;;11.50;11.10;;;25.50;99.90;;;;;;5997533;23;20200;-87
2022/09/23 14:35:46;;;;;;;11.32;11.02;;;25.30;99.90;;;;;;6113255;22;20257;-81
2022/09/23 14:41:30;;;;;;;11.60;11.25;;;24.90;99.90;;;;;;6259734;22;20269;-83
2022/09/23 14:46:56;;;;;;;11.60;11.30;;;25.70;99.90;;;;;;6258736;22;20206;-82
2022/09/23 14:49:27;;;;;;;11.25;10.95;;;26.20;99.90;;;;;;6258287;22;20194;-82
2022/09/23 14:54:52;;;;;;;11.38;11.07;;;26.80;99.90;;;;;;6260765;22;20206;-83
2022/09/23 14:57:30;;;;;;;11.15;10.85;;;27.10;99.90;;;;;;6260732;22;20208;-82
2022/09/23 15:00:08;;;;;;;10.80;10.50;;;27.30;99.90;;;;;;6260699;22;20213;-82
2022/09/23 15:02:46;;;;;;;10.93;10.63;;;27.30;99.90;;;;;;6260857;22;20196;-83
2022/09/23 15:05:24;;;;;;;10.70;10.40;;;27.40;99.90;;;;;;6258878;22;20256;-82
2022/09/23 15:07:54;;;;;;;10.52;10.23;;;27.40;99.90;;;;;;6259189;22;20212;-82
2022/09/23 15:10:32;;;;;;;10.70;10.40;;;27.20;99.90;;;;;;6260774;22;20290;-82
2022/09/23 15:13:11;;;;;;;11.15;10.85;;;26.50;99.90;;;;;;6261137;22;20221;-81